FDX820 MRLB-MHTG
Flight info
| Callsign | FDX820 |
|---|---|
| Flight time | 0h 53m |
| Altitude | 34000 |
| Route | CAPUL2 IMOLA UM328 MGA UA502 LIBIS LIBIS1A |
| Aircraft | MD11/H-SDE1E2E3FGHIJ2J3J4J5M1RWXY/LB1D1 |
Departure
| Time | 2026-05-07 20:40 |
|---|---|
| Airport | Daniel Oduber Quirós International Airport (MRLB) |
Arrival
| Time | 2026-05-07 21:34 |
|---|---|
| Airport | Toncontín Airport (MHTG) |
| Time | Latitude | Longitude | Altitude | Speed | Heading |
|---|---|---|---|---|---|
| 2026-05-07 20:03 | 10.59950 | -85.53674 | 286 ft | 0 kts | 339° |
| 2026-05-07 20:32 | 10.59949 | -85.53674 | 287 ft | 2 kts | 339° |
| 2026-05-07 20:32 | 10.59925 | -85.53665 | 288 ft | 4 kts | 341° |
| 2026-05-07 20:33 | 10.59904 | -85.53658 | 290 ft | 4 kts | 342° |
| 2026-05-07 20:33 | 10.59878 | -85.53651 | 290 ft | 4 kts | 353° |
| 2026-05-07 20:33 | 10.59853 | -85.53650 | 293 ft | 0 kts | 3° |
| 2026-05-07 20:36 | 10.59860 | -85.53645 | 291 ft | 3 kts | 31° |
| 2026-05-07 20:36 | 10.59872 | -85.53600 | 286 ft | 12 kts | 73° |
| 2026-05-07 20:37 | 10.59905 | -85.53504 | 287 ft | 15 kts | 71° |
| 2026-05-07 20:37 | 10.59938 | -85.53405 | 288 ft | 14 kts | 70° |
| 2026-05-07 20:37 | 10.59930 | -85.53345 | 292 ft | 7 kts | 135° |
| 2026-05-07 20:37 | 10.59888 | -85.53328 | 288 ft | 7 kts | 161° |
| 2026-05-07 20:38 | 10.59841 | -85.53311 | 288 ft | 8 kts | 161° |
| 2026-05-07 20:38 | 10.59785 | -85.53294 | 287 ft | 9 kts | 167° |
| 2026-05-07 20:38 | 10.59752 | -85.53311 | 287 ft | 4 kts | 240° |
| 2026-05-07 20:38 | 10.59741 | -85.53337 | 289 ft | 4 kts | 248° |
| 2026-05-07 20:39 | 10.59731 | -85.53364 | 289 ft | 4 kts | 248° |
| 2026-05-07 20:39 | 10.59720 | -85.53393 | 287 ft | 0 kts | 249° |
| 2026-05-07 20:39 | 10.59709 | -85.53422 | 287 ft | 19 kts | 250° |
| 2026-05-07 20:39 | 10.59552 | -85.53867 | 283 ft | 114 kts | 250° |
| 2026-05-07 20:40 | 10.59177 | -85.54886 | 275 ft | 188 kts | 250° |
| 2026-05-07 20:40 | 10.58694 | -85.56167 | 878 ft | 198 kts | 252° |
| 2026-05-07 20:40 | 10.58242 | -85.57547 | 1588 ft | 216 kts | 250° |
| 2026-05-07 20:40 | 10.57702 | -85.59030 | 2143 ft | 235 kts | 249° |
| 2026-05-07 20:41 | 10.57091 | -85.60604 | 2827 ft | 244 kts | 247° |
| 2026-05-07 20:41 | 10.56446 | -85.62225 | 3485 ft | 249 kts | 246° |
| 2026-05-07 20:41 | 10.55768 | -85.63845 | 4195 ft | 250 kts | 244° |
| 2026-05-07 20:41 | 10.54999 | -85.65434 | 4836 ft | 249 kts | 232° |
| 2026-05-07 20:42 | 10.53613 | -85.66395 | 5362 ft | 245 kts | 188° |
| 2026-05-07 20:42 | 10.51974 | -85.66178 | 5748 ft | 244 kts | 148° |
| 2026-05-07 20:42 | 10.50796 | -85.64959 | 5924 ft | 248 kts | 115° |
| 2026-05-07 20:42 | 10.50352 | -85.63251 | 6075 ft | 257 kts | 91° |
| 2026-05-07 20:43 | 10.50617 | -85.61407 | 6025 ft | 274 kts | 70° |
| 2026-05-07 20:43 | 10.51663 | -85.59803 | 6267 ft | 272 kts | 44° |
| 2026-05-07 20:43 | 10.53177 | -85.58653 | 6655 ft | 272 kts | 37° |
| 2026-05-07 20:43 | 10.54781 | -85.57601 | 6943 ft | 275 kts | 36° |
| 2026-05-07 20:44 | 10.56393 | -85.56539 | 7416 ft | 276 kts | 36° |
| 2026-05-07 20:44 | 10.58084 | -85.55591 | 7859 ft | 281 kts | 25° |
| 2026-05-07 20:44 | 10.59333 | -85.55216 | 8190 ft | 286 kts | 12° |
| 2026-05-07 20:44 | 10.61339 | -85.55262 | 8629 ft | 295 kts | 350° |
| 2026-05-07 20:45 | 10.63316 | -85.55905 | 9130 ft | 301 kts | 341° |
| 2026-05-07 20:45 | 10.65260 | -85.56720 | 9980 ft | 304 kts | 340° |
| 2026-05-07 20:45 | 10.67296 | -85.57595 | 10201 ft | 334 kts | 339° |
| 2026-05-07 20:45 | 10.69540 | -85.58550 | 10330 ft | 364 kts | 339° |
| 2026-05-07 20:46 | 10.71939 | -85.59557 | 10854 ft | 377 kts | 340° |
| 2026-05-07 20:46 | 10.74377 | -85.60574 | 11678 ft | 382 kts | 340° |
| 2026-05-07 20:46 | 10.76858 | -85.61592 | 12508 ft | 386 kts | 341° |
| 2026-05-07 20:46 | 10.79408 | -85.62517 | 13271 ft | 392 kts | 345° |
| 2026-05-07 20:47 | 10.82072 | -85.63178 | 14005 ft | 396 kts | 353° |
| 2026-05-07 20:47 | 10.84821 | -85.63388 | 14707 ft | 397 kts | 4° |
| 2026-05-07 20:47 | 10.87544 | -85.62979 | 15423 ft | 396 kts | 19° |
| 2026-05-07 20:47 | 10.89995 | -85.61825 | 16146 ft | 393 kts | 38° |
| 2026-05-07 20:48 | 10.91921 | -85.59881 | 16867 ft | 392 kts | 57° |
| 2026-05-07 20:48 | 10.93408 | -85.57413 | 14758 ft | 433 kts | 64° |
| 2026-05-07 20:48 | 10.94521 | -85.54547 | 8767 ft | 462 kts | 85° |
| 2026-05-07 20:48 | 10.94185 | -85.51403 | 6421 ft | 432 kts | 105° |
| 2026-05-07 20:49 | 10.92917 | -85.48714 | 4497 ft | 416 kts | 124° |
| 2026-05-07 20:49 | 10.90900 | -85.46643 | 2764 ft | 406 kts | 141° |
| 2026-05-07 20:49 | 10.88825 | -85.45661 | 4729 ft | 289 kts | 147° |
| 2026-05-07 20:49 | 10.87868 | -85.44126 | 6246 ft | 269 kts | 82° |
| 2026-05-07 20:50 | 10.89197 | -85.42933 | 6911 ft | 270 kts | 15° |
| 2026-05-07 20:50 | 10.91169 | -85.42940 | 7408 ft | 306 kts | 351° |
| 2026-05-07 20:50 | 10.93239 | -85.43866 | 7550 ft | 349 kts | 327° |
| 2026-05-07 20:50 | 10.95011 | -85.45672 | 8104 ft | 368 kts | 308° |
| 2026-05-07 20:51 | 10.96484 | -85.47833 | 8975 ft | 374 kts | 304° |
| 2026-05-07 20:51 | 10.98044 | -85.49969 | 9825 ft | 379 kts | 316° |
| 2026-05-07 20:51 | 11.00175 | -85.51504 | 10637 ft | 378 kts | 340° |
| 2026-05-07 20:51 | 11.02812 | -85.51852 | 10365 ft | 403 kts | 13° |
| 2026-05-07 20:52 | 11.05209 | -85.50359 | 7771 ft | 418 kts | 64° |
| 2026-05-07 20:52 | 11.04173 | -85.47989 | 6060 ft | 424 kts | 166° |
| 2026-05-07 20:52 | 11.02060 | -85.49487 | 5219 ft | 408 kts | 265° |
| 2026-05-07 20:52 | 11.03622 | -85.51346 | 2922 ft | 380 kts | 12° |
| 2026-05-07 20:53 | 11.05919 | -85.51404 | 4098 ft | 310 kts | 347° |
| 2026-05-07 20:53 | 11.07968 | -85.52403 | 4464 ft | 341 kts | 331° |
| 2026-05-07 20:53 | 11.09978 | -85.53730 | 5501 ft | 346 kts | 329° |
| 2026-05-07 20:53 | 11.12002 | -85.55098 | 6545 ft | 353 kts | 329° |
| 2026-05-07 20:54 | 11.14079 | -85.56470 | 7489 ft | 359 kts | 329° |
| 2026-05-07 20:54 | 11.16198 | -85.57833 | 8490 ft | 362 kts | 330° |
| 2026-05-07 20:54 | 11.18361 | -85.59195 | 9392 ft | 369 kts | 330° |
| 2026-05-07 20:54 | 11.20570 | -85.60565 | 10257 ft | 374 kts | 331° |
| 2026-05-07 20:55 | 11.22808 | -85.61942 | 11136 ft | 378 kts | 330° |
| 2026-05-07 20:55 | 11.25051 | -85.63317 | 11947 ft | 384 kts | 331° |
| 2026-05-07 20:55 | 11.27359 | -85.64729 | 12766 ft | 390 kts | 331° |
| 2026-05-07 20:55 | 11.29701 | -85.66160 | 13566 ft | 395 kts | 331° |
| 2026-05-07 20:56 | 11.32074 | -85.67612 | 14310 ft | 400 kts | 331° |
| 2026-05-07 20:56 | 11.34473 | -85.69079 | 15043 ft | 404 kts | 331° |
| 2026-05-07 20:56 | 11.36896 | -85.70561 | 15747 ft | 409 kts | 331° |
| 2026-05-07 20:56 | 11.39344 | -85.72060 | 16484 ft | 412 kts | 331° |
| 2026-05-07 20:57 | 11.41817 | -85.73573 | 17193 ft | 417 kts | 331° |
| 2026-05-07 20:57 | 11.44319 | -85.75103 | 17896 ft | 421 kts | 331° |
| 2026-05-07 20:57 | 11.46845 | -85.76648 | 18527 ft | 426 kts | 331° |
| 2026-05-07 20:57 | 11.49396 | -85.78210 | 19152 ft | 429 kts | 331° |
| 2026-05-07 20:58 | 11.51969 | -85.79786 | 19763 ft | 433 kts | 331° |
| 2026-05-07 20:58 | 11.54564 | -85.81375 | 20364 ft | 437 kts | 331° |
| 2026-05-07 20:58 | 11.57182 | -85.82980 | 20945 ft | 442 kts | 331° |
| 2026-05-07 20:58 | 11.59829 | -85.84602 | 21514 ft | 446 kts | 331° |
| 2026-05-07 20:59 | 11.62503 | -85.86241 | 22089 ft | 450 kts | 331° |
| 2026-05-07 20:59 | 11.65199 | -85.87894 | 22671 ft | 455 kts | 332° |
| 2026-05-07 20:59 | 11.67921 | -85.89562 | 23232 ft | 459 kts | 332° |
| 2026-05-07 20:59 | 11.70676 | -85.91251 | 23738 ft | 463 kts | 332° |
| 2026-05-07 21:00 | 11.73448 | -85.92952 | 24228 ft | 466 kts | 332° |
| 2026-05-07 21:00 | 11.76238 | -85.94664 | 24723 ft | 469 kts | 332° |
| 2026-05-07 21:00 | 11.79043 | -85.96389 | 25215 ft | 473 kts | 331° |
| 2026-05-07 21:00 | 11.81867 | -85.98126 | 25703 ft | 476 kts | 331° |
| 2026-05-07 21:01 | 11.84678 | -85.99856 | 26151 ft | 479 kts | 331° |
| 2026-05-07 21:01 | 11.87539 | -86.01615 | 26631 ft | 482 kts | 331° |
| 2026-05-07 21:01 | 11.90423 | -86.03388 | 27082 ft | 485 kts | 331° |
| 2026-05-07 21:01 | 11.93320 | -86.05169 | 27546 ft | 488 kts | 331° |
| 2026-05-07 21:02 | 11.96240 | -86.06964 | 27979 ft | 492 kts | 331° |
| 2026-05-07 21:02 | 11.99181 | -86.08773 | 28410 ft | 495 kts | 331° |
| 2026-05-07 21:02 | 12.02143 | -86.10594 | 28843 ft | 498 kts | 331° |
| 2026-05-07 21:02 | 12.05117 | -86.12424 | 29304 ft | 500 kts | 331° |
| 2026-05-07 21:03 | 12.08094 | -86.14256 | 29872 ft | 500 kts | 331° |
| 2026-05-07 21:03 | 12.11068 | -86.16087 | 30388 ft | 498 kts | 331° |
| 2026-05-07 21:03 | 12.14031 | -86.17912 | 30929 ft | 496 kts | 331° |
| 2026-05-07 21:03 | 12.16983 | -86.19730 | 31462 ft | 494 kts | 331° |
| 2026-05-07 21:04 | 12.19908 | -86.21560 | 32006 ft | 492 kts | 329° |
| 2026-05-07 21:04 | 12.22752 | -86.23507 | 32535 ft | 491 kts | 327° |
| 2026-05-07 21:04 | 12.25537 | -86.25536 | 32923 ft | 492 kts | 326° |
| 2026-05-07 21:04 | 12.28299 | -86.27607 | 33297 ft | 491 kts | 325° |
| 2026-05-07 21:05 | 12.31037 | -86.29673 | 33679 ft | 488 kts | 325° |
| 2026-05-07 21:05 | 12.33766 | -86.31728 | 33912 ft | 488 kts | 325° |
| 2026-05-07 21:05 | 12.36512 | -86.33784 | 33966 ft | 490 kts | 325° |
| 2026-05-07 21:06 | 12.42068 | -86.37922 | 33971 ft | 497 kts | 325° |
| 2026-05-07 21:06 | 12.47675 | -86.42087 | 33968 ft | 496 kts | 326° |
| 2026-05-07 21:06 | 12.50420 | -86.44130 | 33968 ft | 476 kts | 326° |
| 2026-05-07 21:07 | 12.53057 | -86.46093 | 33967 ft | 464 kts | 326° |
| 2026-05-07 21:07 | 12.58231 | -86.49940 | 33972 ft | 459 kts | 326° |
| 2026-05-07 21:08 | 12.63356 | -86.53752 | 33973 ft | 458 kts | 325° |
| 2026-05-07 21:08 | 12.68520 | -86.57596 | 33970 ft | 459 kts | 325° |
| 2026-05-07 21:09 | 12.73688 | -86.61447 | 33972 ft | 459 kts | 325° |
| 2026-05-07 21:09 | 12.78855 | -86.65300 | 33978 ft | 459 kts | 325° |
| 2026-05-07 21:10 | 12.84024 | -86.69156 | 33975 ft | 459 kts | 325° |
| 2026-05-07 21:10 | 12.89191 | -86.73015 | 33973 ft | 460 kts | 325° |
| 2026-05-07 21:11 | 12.94358 | -86.76880 | 33978 ft | 460 kts | 325° |
| 2026-05-07 21:11 | 13.02097 | -86.82699 | 33979 ft | 460 kts | 325° |
| 2026-05-07 21:12 | 13.07256 | -86.86585 | 33988 ft | 460 kts | 325° |
| 2026-05-07 21:12 | 13.12414 | -86.90470 | 33996 ft | 460 kts | 325° |
| 2026-05-07 21:13 | 13.17585 | -86.94342 | 33993 ft | 460 kts | 325° |
| 2026-05-07 21:13 | 13.22769 | -86.98194 | 34003 ft | 460 kts | 325° |
| 2026-05-07 21:14 | 13.27959 | -87.02050 | 34001 ft | 460 kts | 325° |
| 2026-05-07 21:14 | 13.33115 | -87.05883 | 34008 ft | 460 kts | 325° |
| 2026-05-07 21:15 | 13.38295 | -87.09740 | 34015 ft | 459 kts | 326° |
| 2026-05-07 21:15 | 13.41034 | -87.11398 | 34017 ft | 457 kts | 338° |
| 2026-05-07 21:15 | 13.44005 | -87.12544 | 34026 ft | 456 kts | 343° |
| 2026-05-07 21:16 | 13.50066 | -87.14425 | 33388 ft | 453 kts | 344° |
| 2026-05-07 21:16 | 13.53080 | -87.15423 | 32246 ft | 458 kts | 343° |
| 2026-05-07 21:16 | 13.56109 | -87.16497 | 31111 ft | 463 kts | 342° |
| 2026-05-07 21:17 | 13.59149 | -87.17629 | 29909 ft | 467 kts | 342° |
| 2026-05-07 21:17 | 13.62214 | -87.18802 | 28596 ft | 471 kts | 341° |
| 2026-05-07 21:17 | 13.65288 | -87.19991 | 27349 ft | 473 kts | 341° |
| 2026-05-07 21:17 | 13.68378 | -87.21190 | 26105 ft | 475 kts | 341° |
| 2026-05-07 21:18 | 13.71472 | -87.22387 | 24976 ft | 475 kts | 341° |
| 2026-05-07 21:18 | 13.74543 | -87.23573 | 24082 ft | 468 kts | 342° |
| 2026-05-07 21:18 | 13.77573 | -87.24741 | 23159 ft | 461 kts | 341° |
| 2026-05-07 21:18 | 13.80548 | -87.25886 | 22203 ft | 453 kts | 341° |
| 2026-05-07 21:19 | 13.83482 | -87.27007 | 21252 ft | 445 kts | 342° |
| 2026-05-07 21:19 | 13.86441 | -87.27798 | 20288 ft | 435 kts | 355° |
| 2026-05-07 21:19 | 13.89421 | -87.27769 | 19413 ft | 424 kts | 11° |
| 2026-05-07 21:19 | 13.92250 | -87.27046 | 18520 ft | 416 kts | 20° |
| 2026-05-07 21:20 | 13.94951 | -87.26036 | 17572 ft | 410 kts | 23° |
| 2026-05-07 21:20 | 13.97581 | -87.24985 | 16859 ft | 397 kts | 23° |
| 2026-05-07 21:20 | 14.00087 | -87.24013 | 16743 ft | 373 kts | 22° |
| 2026-05-07 21:20 | 14.02410 | -87.23036 | 16476 ft | 351 kts | 31° |
| 2026-05-07 21:21 | 14.04373 | -87.21607 | 15875 ft | 343 kts | 43° |
| 2026-05-07 21:21 | 14.06147 | -87.19994 | 15221 ft | 339 kts | 43° |
| 2026-05-07 21:21 | 14.08038 | -87.18552 | 14575 ft | 339 kts | 32° |
| 2026-05-07 21:21 | 14.10219 | -87.17650 | 13938 ft | 340 kts | 14° |
| 2026-05-07 21:22 | 14.12544 | -87.17472 | 13252 ft | 342 kts | 356° |
| 2026-05-07 21:22 | 14.14855 | -87.18027 | 12557 ft | 343 kts | 339° |
| 2026-05-07 21:22 | 14.16921 | -87.19253 | 11879 ft | 343 kts | 322° |
| 2026-05-07 21:22 | 14.18565 | -87.21027 | 11213 ft | 343 kts | 306° |
| 2026-05-07 21:23 | 14.19663 | -87.23196 | 10570 ft | 342 kts | 289° |
| 2026-05-07 21:23 | 14.20135 | -87.25586 | 9927 ft | 340 kts | 272° |
| 2026-05-07 21:23 | 14.19941 | -87.27993 | 9310 ft | 336 kts | 256° |
| 2026-05-07 21:23 | 14.19132 | -87.30196 | 8896 ft | 323 kts | 240° |
| 2026-05-07 21:24 | 14.17838 | -87.32027 | 8497 ft | 311 kts | 224° |
| 2026-05-07 21:24 | 14.16135 | -87.33294 | 8172 ft | 296 kts | 202° |
| 2026-05-07 21:24 | 14.14227 | -87.33791 | 8072 ft | 273 kts | 180° |
| 2026-05-07 21:24 | 14.12433 | -87.33564 | 8043 ft | 248 kts | 159° |
| 2026-05-07 21:25 | 14.10930 | -87.32943 | 8023 ft | 218 kts | 153° |
| 2026-05-07 21:25 | 14.09617 | -87.32256 | 8050 ft | 210 kts | 147° |
| 2026-05-07 21:25 | 14.08502 | -87.31378 | 8022 ft | 191 kts | 134° |
| 2026-05-07 21:25 | 14.07715 | -87.30371 | 8010 ft | 176 kts | 123° |
| 2026-05-07 21:26 | 14.07039 | -87.29324 | 8060 ft | 176 kts | 122° |
| 2026-05-07 21:26 | 14.06367 | -87.28276 | 8063 ft | 174 kts | 122° |
| 2026-05-07 21:26 | 14.05681 | -87.27200 | 7566 ft | 187 kts | 122° |
| 2026-05-07 21:26 | 14.04819 | -87.26159 | 6798 ft | 198 kts | 143° |
| 2026-05-07 21:27 | 14.03485 | -87.25739 | 5978 ft | 207 kts | 175° |
| 2026-05-07 21:27 | 14.02088 | -87.25605 | 5333 ft | 192 kts | 163° |
| 2026-05-07 21:27 | 14.01143 | -87.24833 | 4841 ft | 173 kts | 111° |
| 2026-05-07 21:27 | 14.01265 | -87.23681 | 4314 ft | 162 kts | 59° |
| 2026-05-07 21:28 | 14.02128 | -87.22927 | 4081 ft | 165 kts | 19° |
| 2026-05-07 21:28 | 14.03307 | -87.22976 | 4165 ft | 188 kts | 336° |
| 2026-05-07 21:28 | 14.04514 | -87.23436 | 3916 ft | 172 kts | 358° |
| 2026-05-07 21:28 | 14.05682 | -87.23169 | 4025 ft | 180 kts | 29° |
| 2026-05-07 21:29 | 14.06535 | -87.22200 | 4316 ft | 198 kts | 69° |
| 2026-05-07 21:29 | 14.06498 | -87.20850 | 4305 ft | 197 kts | 120° |
| 2026-05-07 21:29 | 14.05359 | -87.20168 | 4366 ft | 202 kts | 182° |
| 2026-05-07 21:29 | 14.04103 | -87.20706 | 4370 ft | 189 kts | 217° |
| 2026-05-07 21:30 | 14.03711 | -87.21947 | 3963 ft | 196 kts | 291° |
| 2026-05-07 21:30 | 14.04691 | -87.22673 | 3736 ft | 180 kts | 10° |
| 2026-05-07 21:30 | 14.05651 | -87.22018 | 3448 ft | 167 kts | 45° |
| 2026-05-07 21:30 | 14.06756 | -87.21513 | 3516 ft | 188 kts | 17° |
| 2026-05-07 21:31 | 14.08105 | -87.21238 | 3978 ft | 207 kts | 358° |
| 2026-05-07 21:31 | 14.09244 | -87.22100 | 4337 ft | 224 kts | 285° |
| 2026-05-07 21:31 | 14.09011 | -87.23617 | 4897 ft | 219 kts | 243° |
| 2026-05-07 21:31 | 14.08090 | -87.24899 | 5186 ft | 230 kts | 219° |
| 2026-05-07 21:32 | 14.06699 | -87.25716 | 5343 ft | 233 kts | 194° |
| 2026-05-07 21:32 | 14.05107 | -87.26032 | 5134 ft | 231 kts | 181° |
| 2026-05-07 21:32 | 14.03763 | -87.25622 | 5326 ft | 187 kts | 134° |
| 2026-05-07 21:32 | 14.03436 | -87.24356 | 4635 ft | 206 kts | 72° |
| 2026-05-07 21:33 | 14.04267 | -87.23203 | 4359 ft | 198 kts | 41° |
| 2026-05-07 21:33 | 14.05189 | -87.22231 | 3534 ft | 185 kts | 46° |
| 2026-05-07 21:33 | 14.05871 | -87.21797 | 3292 ft | 160 kts | 20° |
| 2026-05-07 21:33 | 14.06640 | -87.21523 | 3257 ft | 73 kts | 18° |
| 2026-05-07 21:34 | 14.06867 | -87.21473 | 3253 ft | 9 kts | 323° |
| 2026-05-07 21:34 | 14.06880 | -87.21495 | 3254 ft | 8 kts | 296° |
| 2026-05-07 21:34 | 14.06862 | -87.21532 | 3252 ft | 8 kts | 209° |
| 2026-05-07 21:34 | 14.06801 | -87.21556 | 3254 ft | 10 kts | 198° |
| 2026-05-07 21:35 | 14.06733 | -87.21580 | 3257 ft | 10 kts | 200° |
| 2026-05-07 21:35 | 14.06665 | -87.21604 | 3258 ft | 10 kts | 199° |
| 2026-05-07 21:35 | 14.06594 | -87.21629 | 3260 ft | 11 kts | 198° |
| 2026-05-07 21:35 | 14.06513 | -87.21658 | 3261 ft | 14 kts | 199° |
| 2026-05-07 21:36 | 14.06417 | -87.21691 | 3261 ft | 15 kts | 198° |
| 2026-05-07 21:36 | 14.06329 | -87.21723 | 3265 ft | 11 kts | 199° |
| 2026-05-07 21:36 | 14.06265 | -87.21745 | 3268 ft | 8 kts | 198° |
| 2026-05-07 21:36 | 14.06222 | -87.21759 | 3268 ft | 5 kts | 197° |
| 2026-05-07 21:37 | 14.06196 | -87.21768 | 3270 ft | 4 kts | 198° |
| 2026-05-07 21:37 | 14.06167 | -87.21778 | 3270 ft | 5 kts | 199° |
| 2026-05-07 21:37 | 14.06138 | -87.21788 | 3271 ft | 4 kts | 199° |
| 2026-05-07 21:37 | 14.06127 | -87.21792 | 3277 ft | 0 kts | 199° |
| 2026-05-07 21:38 | 14.06096 | -87.21803 | 3277 ft | 16 kts | 200° |
| 2026-05-07 21:38 | 14.06013 | -87.21833 | 3280 ft | 8 kts | 199° |
| 2026-05-07 21:38 | 14.05981 | -87.21844 | 3286 ft | 2 kts | 199° |
| 2026-05-07 21:38 | 14.05979 | -87.21845 | 3286 ft | 0 kts | 198° |
| 2026-05-07 21:39 | 14.05944 | -87.21856 | 3288 ft | 9 kts | 197° |
| 2026-05-07 21:39 | 14.05900 | -87.21872 | 3290 ft | 5 kts | 200° |
| 2026-05-07 21:39 | 14.05823 | -87.21902 | 3294 ft | 19 kts | 199° |
| 2026-05-07 21:39 | 14.05682 | -87.21950 | 3300 ft | 14 kts | 199° |
| 2026-05-07 21:40 | 14.05604 | -87.21978 | 3304 ft | 9 kts | 199° |
| 2026-05-07 21:40 | 14.05565 | -87.21998 | 3306 ft | 3 kts | 221° |
| 2026-05-07 21:40 | 14.05556 | -87.22014 | 3306 ft | 5 kts | 246° |
| 2026-05-07 21:40 | 14.05570 | -87.22040 | 3306 ft | 3 kts | 323° |
| 2026-05-07 21:41 | 14.05574 | -87.22042 | 3305 ft | 0 kts | 329° |